Time;durP1;ratioP1;P1;durP2;ratioP2;P2;SDS_P1;SDS_P2;PMS_P1;PMS_P2;Temp;Humidity;BMP_temperature;BMP_pressure;BME280_temperature;BME280_humidity;BME280_pressure;Samples;Min_cycle;Max_cycle;Signal;HPM_P1;HPM_P2
2022/07/19 00:00:32;;;;;;;17.67;8.20;;;;;;;;;;5062178;28;20021;-78
2022/07/19 00:02:58;;;;;;;16.83;8.75;;;;;;;;;;5059944;28;20490;-78
2022/07/19 00:05:25;;;;;;;17.02;8.20;;;;;;;;;;5060524;28;20025;-78
2022/07/19 00:07:53;;;;;;;14.18;8.52;;;;;;;;;;5062119;28;20021;-78
2022/07/19 00:10:19;;;;;;;22.13;9.45;;;;;;;;;;5060419;28;20055;-78
2022/07/19 00:12:45;;;;;;;15.93;9.35;;;;;;;;;;5058829;28;20029;-79
2022/07/19 00:15:13;;;;;;;19.63;8.80;;;;;;;;;;5060592;28;20029;-77
2022/07/19 00:17:40;;;;;;;14.85;9.05;;;;;;;;;;5059675;28;20117;-78
2022/07/19 00:20:07;;;;;;;18.50;9.50;;;;;;;;;;5058650;28;20059;-78
2022/07/19 00:22:33;;;;;;;18.77;9.48;;;;;;;;;;5060061;28;20040;-80
2022/07/19 00:24:59;;;;;;;14.55;8.80;;;;;;;;;;5057897;28;20044;-78
2022/07/19 00:27:25;;;;;;;16.05;8.68;;;;;;;;;;5057202;28;20100;-77
2022/07/19 00:29:51;;;;;;;12.98;8.63;;;;;;;;;;5058460;28;20411;-78
2022/07/19 00:32:17;;;;;;;12.52;8.48;;;;;;;;;;5058143;28;20029;-79
2022/07/19 00:34:43;;;;;;;11.68;8.40;;;;;;;;;;5056626;28;20122;-78
2022/07/19 00:37:09;;;;;;;15.27;8.30;;;;;;;;;;5056301;28;20541;-77
2022/07/19 00:39:36;;;;;;;13.23;9.07;;;;;;;;;;5055849;28;20063;-78
2022/07/19 00:42:02;;;;;;;13.45;8.30;;;;;;;;;;5055650;28;20037;-79
2022/07/19 00:44:28;;;;;;;17.20;9.52;;;;;;;;;;5056425;28;20033;-79
2022/07/19 00:46:54;;;;;;;18.10;9.23;;;;;;;;;;5056847;28;20029;-79
2022/07/19 00:49:20;;;;;;;16.10;9.40;;;;;;;;;;5055135;28;20044;-78
2022/07/19 00:51:47;;;;;;;17.05;8.68;;;;;;;;;;5054515;28;20385;-79
2022/07/19 00:54:13;;;;;;;15.07;9.52;;;;;;;;;;5053778;28;20073;-77
2022/07/19 00:56:41;;;;;;;9.80;8.80;;;;;;;;;;5052509;28;20029;-78
2022/07/19 00:59:08;;;;;;;11.45;8.80;;;;;;;;;;5053004;28;20025;-80
2022/07/19 01:01:34;;;;;;;13.20;9.30;;;;;;;;;;5056718;28;20079;-78
2022/07/19 01:04:00;;;;;;;16.10;9.48;;;;;;;;;;5057421;28;20025;-78
2022/07/19 01:06:27;;;;;;;18.38;9.07;;;;;;;;;;5057058;28;20122;-78
2022/07/19 01:08:53;;;;;;;19.27;9.65;;;;;;;;;;5056215;28;20016;-79
2022/07/19 01:11:19;;;;;;;16.67;9.68;;;;;;;;;;5049376;28;20104;-78
2022/07/19 01:13:46;;;;;;;15.52;10.32;;;;;;;;;;5035852;28;20125;-78
2022/07/19 01:16:12;;;;;;;14.63;10.43;;;;;;;;;;5036706;28;20120;-78
2022/07/19 01:18:38;;;;;;;16.42;10.70;;;;;;;;;;5036562;28;20063;-79
2022/07/19 01:21:05;;;;;;;21.63;10.60;;;;;;;;;;5036414;28;20033;-77
2022/07/19 01:23:31;;;;;;;13.45;9.93;;;;;;;;;;5036365;28;20029;-78
2022/07/19 01:25:57;;;;;;;13.13;9.52;;;;;;;;;;5036638;28;20116;-77
2022/07/19 01:28:23;;;;;;;17.08;10.63;;;;;;;;;;5035790;28;20022;-78
2022/07/19 01:30:50;;;;;;;15.30;10.02;;;;;;;;;;5036272;28;20064;-77
2022/07/19 01:33:17;;;;;;;18.33;10.18;;;;;;;;;;5035939;28;20052;-78
2022/07/19 01:35:43;;;;;;;15.18;10.65;;;;;;;;;;5035586;28;20051;-78
2022/07/19 01:38:09;;;;;;;15.35;10.02;;;;;;;;;;5035237;28;20044;-78
2022/07/19 01:40:35;;;;;;;15.85;9.60;;;;;;;;;;5034472;28;20033;-77
2022/07/19 01:43:01;;;;;;;14.25;9.70;;;;;;;;;;5034980;28;20056;-78
2022/07/19 01:45:27;;;;;;;12.80;10.10;;;;;;;;;;5035144;28;20038;-78
2022/07/19 01:47:53;;;;;;;19.10;10.25;;;;;;;;;;5035054;28;20125;-78
2022/07/19 01:50:19;;;;;;;16.02;9.88;;;;;;;;;;5033788;28;20029;-78
2022/07/19 01:52:46;;;;;;;14.73;10.55;;;;;;;;;;5035096;28;20056;-79
2022/07/19 01:55:13;;;;;;;18.13;11.15;;;;;;;;;;5035083;28;20025;-78
2022/07/19 01:57:38;;;;;;;16.05;10.52;;;;;;;;;;5033807;28;20057;-79
2022/07/19 02:00:05;;;;;;;19.67;11.45;;;;;;;;;;5034879;28;20095;-78
2022/07/19 02:02:31;;;;;;;15.75;10.88;;;;;;;;;;5034480;28;20030;-78
2022/07/19 02:04:57;;;;;;;18.55;11.23;;;;;;;;;;5034153;28;20026;-77
2022/07/19 02:07:23;;;;;;;16.25;11.23;;;;;;;;;;5034191;28;20494;-78
2022/07/19 02:09:49;;;;;;;17.40;11.35;;;;;;;;;;5034024;28;20018;-78
2022/07/19 02:12:16;;;;;;;17.00;10.63;;;;;;;;;;5046261;28;20048;-78
2022/07/19 02:14:42;;;;;;;20.05;11.80;;;;;;;;;;5053600;28;20108;-78
2022/07/19 02:17:08;;;;;;;19.45;10.98;;;;;;;;;;5052419;28;20502;-78
2022/07/19 02:19:34;;;;;;;21.00;11.75;;;;;;;;;;5053738;28;20082;-78
2022/07/19 02:22:00;;;;;;;15.75;10.88;;;;;;;;;;5053783;28;20037;-78
2022/07/19 02:24:26;;;;;;;17.13;10.95;;;;;;;;;;5054096;28;20535;-78
2022/07/19 02:26:52;;;;;;;12.85;10.75;;;;;;;;;;5052099;28;20061;-78
2022/07/19 02:29:18;;;;;;;19.38;11.00;;;;;;;;;;5053446;28;20111;-78
2022/07/19 02:31:44;;;;;;;15.40;11.07;;;;;;;;;;5054058;28;20036;-79
2022/07/19 02:34:10;;;;;;;16.17;10.75;;;;;;;;;;5053217;28;20021;-79
2022/07/19 02:36:36;;;;;;;22.70;11.77;;;;;;;;;;5053412;28;20024;-77
2022/07/19 02:39:02;;;;;;;11.80;10.55;;;;;;;;;;5052969;28;20482;-78
2022/07/19 02:41:28;;;;;;;17.05;12.02;;;;;;;;;;5052616;28;20029;-78
2022/07/19 02:43:55;;;;;;;17.70;12.60;;;;;;;;;;5052720;28;20039;-78
2022/07/19 02:46:21;;;;;;;24.83;12.10;;;;;;;;;;5052825;28;20029;-79
2022/07/19 02:48:47;;;;;;;17.20;12.02;;;;;;;;;;5052623;28;20561;-78
2022/07/19 02:51:13;;;;;;;14.10;11.07;;;;;;;;;;5052294;28;20052;-78
2022/07/19 02:53:39;;;;;;;21.50;11.75;;;;;;;;;;5052625;28;20033;-78
2022/07/19 02:56:05;;;;;;;14.60;11.65;;;;;;;;;;5052672;28;20029;-78
2022/07/19 02:58:31;;;;;;;17.52;12.35;;;;;;;;;;5051107;28;20052;-77
2022/07/19 03:00:57;;;;;;;18.13;11.30;;;;;;;;;;5052538;28;20033;-77
2022/07/19 03:06:07;;;;;;;13.15;11.45;;;;;;;;;;5052592;28;20121;-77
2022/07/19 03:08:33;;;;;;;14.05;11.07;;;;;;;;;;5052034;28;20076;-78
2022/07/19 03:10:59;;;;;;;21.33;11.50;;;;;;;;;;5052550;28;20041;-78
2022/07/19 03:13:25;;;;;;;15.27;12.30;;;;;;;;;;5052584;28;20135;-78
2022/07/19 03:15:51;;;;;;;16.60;12.02;;;;;;;;;;5051880;28;20032;-78
2022/07/19 03:18:18;;;;;;;15.95;11.90;;;;;;;;;;5053217;28;20055;-78
2022/07/19 03:20:44;;;;;;;18.50;11.95;;;;;;;;;;5051878;28;20041;-78
2022/07/19 03:23:11;;;;;;;17.27;11.52;;;;;;;;;;5051688;28;20021;-78
2022/07/19 03:25:37;;;;;;;21.92;11.60;;;;;;;;;;5052597;28;20028;-78
2022/07/19 03:28:03;;;;;;;16.95;11.23;;;;;;;;;;5052855;28;20054;-78
2022/07/19 03:30:29;;;;;;;17.17;11.05;;;;;;;;;;5052706;28;20033;-77
2022/07/19 03:32:55;;;;;;;17.05;10.73;;;;;;;;;;5051927;28;20037;-78
2022/07/19 03:35:21;;;;;;;18.73;11.35;;;;;;;;;;5052717;28;20033;-78
2022/07/19 03:37:47;;;;;;;13.20;10.70;;;;;;;;;;5053073;28;20116;-78
2022/07/19 03:40:13;;;;;;;15.18;10.98;;;;;;;;;;5052424;28;20067;-78
2022/07/19 03:42:39;;;;;;;15.65;10.13;;;;;;;;;;5052649;28;20040;-78
2022/07/19 03:45:06;;;;;;;14.25;10.52;;;;;;;;;;5052764;28;20086;-79
2022/07/19 03:47:32;;;;;;;19.58;11.10;;;;;;;;;;5052828;28;20025;-78
2022/07/19 03:49:58;;;;;;;17.30;10.95;;;;;;;;;;5053051;28;20120;-78
2022/07/19 03:52:25;;;;;;;17.17;11.60;;;;;;;;;;5052396;28;20112;-78
2022/07/19 03:54:51;;;;;;;13.63;10.60;;;;;;;;;;5052620;28;20029;-78
2022/07/19 03:57:17;;;;;;;16.90;10.73;;;;;;;;;;5052323;28;20041;-78
2022/07/19 03:59:43;;;;;;;25.38;12.32;;;;;;;;;;5052306;28;20036;-78
2022/07/19 04:02:09;;;;;;;20.17;10.90;;;;;;;;;;5052677;28;20043;-78
2022/07/19 04:04:35;;;;;;;13.35;10.98;;;;;;;;;;5052172;28;20482;-78
2022/07/19 04:07:01;;;;;;;16.10;10.75;;;;;;;;;;5052871;28;20498;-78
2022/07/19 04:09:27;;;;;;;15.68;10.45;;;;;;;;;;5052299;28;20025;-78
2022/07/19 04:11:53;;;;;;;15.30;10.52;;;;;;;;;;5052456;28;20029;-78
2022/07/19 04:14:19;;;;;;;24.70;12.50;;;;;;;;;;5052155;28;20104;-78
2022/07/19 04:16:51;;;;;;;16.40;10.00;;;;;;;;;;5052111;28;20044;-78
2022/07/19 04:19:17;;;;;;;12.02;10.68;;;;;;;;;;5052003;28;20032;-78
2022/07/19 04:21:43;;;;;;;20.30;11.10;;;;;;;;;;5052128;28;20027;-78
2022/07/19 04:24:09;;;;;;;17.63;10.55;;;;;;;;;;5051218;28;20025;-78
2022/07/19 04:26:35;;;;;;;16.40;11.20;;;;;;;;;;5052109;28;20384;-78
2022/07/19 04:29:01;;;;;;;28.70;11.05;;;;;;;;;;5052059;28;20106;-77
2022/07/19 04:31:27;;;;;;;16.17;10.48;;;;;;;;;;5052171;28;20478;-78
2022/07/19 04:33:53;;;;;;;16.92;10.60;;;;;;;;;;5051525;28;20033;-78
2022/07/19 04:36:19;;;;;;;19.40;10.50;;;;;;;;;;5052814;28;20029;-77
2022/07/19 04:38:45;;;;;;;15.60;9.55;;;;;;;;;;5056222;28;20037;-78
2022/07/19 04:41:11;;;;;;;23.40;10.18;;;;;;;;;;5057411;28;20033;-77
2022/07/19 04:43:37;;;;;;;18.30;9.65;;;;;;;;;;5060001;28;20048;-78
2022/07/19 04:46:03;;;;;;;18.73;9.43;;;;;;;;;;5055103;28;20357;-78
2022/07/19 04:48:29;;;;;;;16.48;9.20;;;;;;;;;;5057250;28;20025;-78
2022/07/19 04:50:56;;;;;;;22.05;9.23;;;;;;;;;;5058667;28;20470;-78
2022/07/19 04:53:22;;;;;;;18.00;8.85;;;;;;;;;;5056409;28;20037;-78
2022/07/19 04:55:48;;;;;;;21.52;8.52;;;;;;;;;;5056565;28;20028;-79
2022/07/19 04:58:14;;;;;;;22.33;8.32;;;;;;;;;;5056444;28;20116;-78
2022/07/19 05:00:40;;;;;;;14.90;9.18;;;;;;;;;;5055673;28;20445;-79
2022/07/19 05:03:06;;;;;;;21.45;8.38;;;;;;;;;;5054543;28;20036;-78
2022/07/19 05:05:52;;;;;;;19.50;7.45;;;;;;;;;;5056458;28;20025;-79
2022/07/19 05:08:19;;;;;;;21.52;9.50;;;;;;;;;;5056395;28;20032;-79
2022/07/19 05:10:45;;;;;;;13.48;9.30;;;;;;;;;;5053630;28;20171;-79
2022/07/19 05:13:12;;;;;;;19.23;10.00;;;;;;;;;;5036330;28;20068;-78
2022/07/19 05:15:38;;;;;;;70.63;11.80;;;;;;;;;;5036106;28;20038;-78
2022/07/19 05:18:04;;;;;;;61.70;11.93;;;;;;;;;;5036207;28;20048;-79
2022/07/19 05:20:31;;;;;;;33.70;9.23;;;;;;;;;;5034647;28;20061;-83
2022/07/19 05:22:57;;;;;;;23.63;8.38;;;;;;;;;;5035763;28;20029;-79
2022/07/19 05:25:23;;;;;;;22.20;7.75;;;;;;;;;;5035791;28;20449;-79
2022/07/19 05:27:51;;;;;;;12.43;7.50;;;;;;;;;;5035848;28;20064;-79
2022/07/19 05:30:17;;;;;;;17.08;8.05;;;;;;;;;;5034350;28;20025;-79
2022/07/19 05:32:43;;;;;;;17.45;7.97;;;;;;;;;;5033800;28;20483;-79
2022/07/19 05:35:09;;;;;;;15.63;8.00;;;;;;;;;;5035063;28;20036;-79
2022/07/19 05:37:35;;;;;;;15.18;7.20;;;;;;;;;;5033722;28;20090;-78
2022/07/19 05:40:01;;;;;;;14.20;6.75;;;;;;;;;;5035442;28;20115;-79
2022/07/19 05:42:27;;;;;;;48.40;8.70;;;;;;;;;;5035421;28;20486;-79
2022/07/19 05:44:53;;;;;;;21.55;7.50;;;;;;;;;;5035498;28;20030;-78
2022/07/19 05:47:19;;;;;;;14.10;7.13;;;;;;;;;;5034469;28;20059;-79
2022/07/19 05:49:45;;;;;;;21.30;7.00;;;;;;;;;;5034649;28;20068;-78
2022/07/19 05:52:11;;;;;;;26.33;7.00;;;;;;;;;;5034818;28;20099;-81
2022/07/19 05:54:37;;;;;;;14.60;7.28;;;;;;;;;;5035038;28;20025;-79
2022/07/19 05:57:03;;;;;;;13.60;6.35;;;;;;;;;;5035273;28;20056;-79
2022/07/19 05:59:29;;;;;;;14.23;6.20;;;;;;;;;;5034547;28;20033;-79
2022/07/19 06:01:56;;;;;;;14.18;6.03;;;;;;;;;;5033523;28;20580;-79
2022/07/19 06:04:23;;;;;;;11.35;6.30;;;;;;;;;;5033455;28;20037;-79
2022/07/19 06:06:49;;;;;;;17.55;7.05;;;;;;;;;;5035171;28;20033;-79
2022/07/19 06:09:15;;;;;;;22.95;6.55;;;;;;;;;;5044433;28;20067;-79
2022/07/19 06:11:42;;;;;;;17.77;6.45;;;;;;;;;;5053906;28;20525;-80
2022/07/19 06:14:08;;;;;;;19.35;6.55;;;;;;;;;;5054628;28;20055;-79
2022/07/19 06:16:35;;;;;;;8.82;6.15;;;;;;;;;;5054766;28;20033;-79
2022/07/19 06:19:01;;;;;;;15.48;5.85;;;;;;;;;;5055404;28;20025;-78
2022/07/19 06:21:27;;;;;;;11.35;5.70;;;;;;;;;;5055180;28;20104;-79
2022/07/19 06:23:53;;;;;;;13.77;6.07;;;;;;;;;;5055319;28;20033;-78
2022/07/19 06:26:20;;;;;;;38.33;6.80;;;;;;;;;;5053528;28;20033;-78
2022/07/19 06:28:46;;;;;;;29.77;6.45;;;;;;;;;;5055108;28;20017;-79
2022/07/19 06:31:13;;;;;;;20.33;6.00;;;;;;;;;;5054782;28;20029;-79
2022/07/19 06:33:43;;;;;;;11.98;5.50;;;;;;;;;;5054800;28;20029;-79
2022/07/19 06:36:09;;;;;;;17.63;5.35;;;;;;;;;;5054845;28;20033;-83
2022/07/19 06:38:35;;;;;;;11.57;5.18;;;;;;;;;;5053284;28;20128;-79
2022/07/19 06:41:02;;;;;;;17.83;5.07;;;;;;;;;;5053728;28;20083;-79
2022/07/19 06:43:28;;;;;;;14.68;4.75;;;;;;;;;;5054089;28;20037;-79
2022/07/19 06:45:55;;;;;;;13.15;5.15;;;;;;;;;;5054075;28;20037;-79
2022/07/19 06:48:21;;;;;;;8.57;4.50;;;;;;;;;;5036552;28;20029;-79
2022/07/19 06:50:47;;;;;;;11.23;4.60;;;;;;;;;;5054010;28;20029;-79
2022/07/19 06:53:13;;;;;;;18.02;4.40;;;;;;;;;;5053276;28;20017;-79
2022/07/19 06:55:39;;;;;;;12.50;4.70;;;;;;;;;;5053061;28;20039;-79
2022/07/19 06:58:05;;;;;;;13.35;4.72;;;;;;;;;;5053551;28;20123;-79
2022/07/19 07:00:31;;;;;;;11.25;4.82;;;;;;;;;;5053572;28;20035;-79
2022/07/19 07:02:57;;;;;;;23.08;4.85;;;;;;;;;;5048646;28;20060;-79
2022/07/19 07:05:23;;;;;;;13.73;4.82;;;;;;;;;;5032590;28;20079;-79
2022/07/19 07:07:51;;;;;;;9.73;4.35;;;;;;;;;;5033348;28;20029;-78
2022/07/19 07:10:17;;;;;;;11.38;4.10;;;;;;;;;;5033333;28;20037;-79
2022/07/19 07:12:43;;;;;;;14.45;4.28;;;;;;;;;;5033617;28;20026;-78
2022/07/19 07:15:09;;;;;;;11.80;3.75;;;;;;;;;;5033402;28;20124;-80
2022/07/19 07:17:36;;;;;;;8.38;3.70;;;;;;;;;;5033862;28;20499;-79
2022/07/19 07:20:03;;;;;;;17.25;4.15;;;;;;;;;;5033488;28;20029;-78
2022/07/19 07:22:29;;;;;;;9.15;4.15;;;;;;;;;;5033909;28;20030;-79
2022/07/19 07:24:55;;;;;;;12.52;3.67;;;;;;;;;;5033581;28;20025;-79
2022/07/19 07:27:22;;;;;;;11.38;3.95;;;;;;;;;;5033253;28;20026;-78
2022/07/19 07:29:48;;;;;;;21.17;4.43;;;;;;;;;;5033426;28;20025;-78
2022/07/19 07:32:14;;;;;;;13.85;4.85;;;;;;;;;;5033167;28;20028;-78
2022/07/19 07:34:40;;;;;;;13.50;4.20;;;;;;;;;;5033955;28;20034;-79
2022/07/19 07:37:06;;;;;;;8.65;3.70;;;;;;;;;;5033562;28;20044;-79
2022/07/19 07:39:32;;;;;;;10.93;3.72;;;;;;;;;;5032744;28;20053;-79
2022/07/19 07:41:58;;;;;;;16.30;3.67;;;;;;;;;;5032189;28;20029;-80
2022/07/19 07:44:24;;;;;;;8.57;3.53;;;;;;;;;;5032537;28;20026;-78
2022/07/19 07:46:50;;;;;;;6.32;3.30;;;;;;;;;;5033370;28;20040;-79
2022/07/19 07:49:17;;;;;;;7.40;3.45;;;;;;;;;;5034587;28;20110;-80
2022/07/19 07:51:43;;;;;;;10.43;3.70;;;;;;;;;;5034239;28;20025;-79
2022/07/19 07:54:09;;;;;;;8.98;3.53;;;;;;;;;;5032402;28;20031;-79
2022/07/19 07:56:35;;;;;;;13.60;3.72;;;;;;;;;;5033303;28;20113;-78
2022/07/19 07:59:01;;;;;;;7.18;3.55;;;;;;;;;;5033352;28;20028;-79
2022/07/19 08:01:29;;;;;;;8.45;3.47;;;;;;;;;;5032557;28;20037;-79
2022/07/19 08:03:55;;;;;;;8.48;3.30;;;;;;;;;;5031763;28;20112;-80
2022/07/19 08:06:21;;;;;;;7.47;3.10;;;;;;;;;;5032667;28;20140;-80
2022/07/19 08:08:47;;;;;;;8.30;3.38;;;;;;;;;;5032821;28;20079;-80
2022/07/19 08:11:13;;;;;;;7.45;3.08;;;;;;;;;;5032498;28;20029;-80
2022/07/19 08:13:39;;;;;;;10.25;2.88;;;;;;;;;;5033388;28;20124;-81
2022/07/19 08:16:06;;;;;;;13.15;2.83;;;;;;;;;;5033273;28;20033;-80
2022/07/19 08:18:32;;;;;;;8.57;3.30;;;;;;;;;;5032577;28;20040;-80
2022/07/19 08:20:58;;;;;;;10.25;3.10;;;;;;;;;;5033130;28;20037;-80
2022/07/19 08:23:24;;;;;;;7.88;3.10;;;;;;;;;;5031934;28;20044;-80
2022/07/19 08:25:50;;;;;;;9.77;3.00;;;;;;;;;;5032874;28;20033;-80
2022/07/19 08:28:16;;;;;;;9.02;3.40;;;;;;;;;;5031489;28;20403;-80
2022/07/19 08:30:42;;;;;;;5.82;2.80;;;;;;;;;;5031944;28;20026;-80
2022/07/19 08:33:09;;;;;;;12.65;3.30;;;;;;;;;;5031002;28;20026;-80
2022/07/19 08:35:36;;;;;;;6.65;2.67;;;;;;;;;;5032606;28;20065;-80
2022/07/19 08:38:02;;;;;;;7.80;3.17;;;;;;;;;;5033267;28;20467;-80
2022/07/19 08:40:28;;;;;;;7.57;3.10;;;;;;;;;;5032749;28;20029;-80
2022/07/19 08:42:57;;;;;;;10.35;3.08;;;;;;;;;;5032637;28;20076;-80
2022/07/19 08:45:23;;;;;;;12.05;3.20;;;;;;;;;;5033268;28;20018;-80
2022/07/19 08:47:50;;;;;;;11.82;3.30;;;;;;;;;;5032988;28;20026;-80
2022/07/19 08:50:16;;;;;;;7.97;2.70;;;;;;;;;;5032308;28;20036;-80
2022/07/19 08:52:42;;;;;;;7.53;2.75;;;;;;;;;;5033151;28;20060;-79
2022/07/19 08:55:09;;;;;;;11.25;2.70;;;;;;;;;;5032484;28;20034;-79
2022/07/19 09:00:20;;;;;;;13.88;3.00;;;;;;;;;;5032459;28;20393;-79
2022/07/19 09:02:57;;;;;;;9.73;2.95;;;;;;;;;;5032161;28;20030;-80
2022/07/19 09:05:23;;;;;;;8.50;3.13;;;;;;;;;;5032920;28;20040;-79
2022/07/19 09:08:04;;;;;;;16.02;3.92;;;;;;;;;;5031763;28;20475;-80
2022/07/19 09:10:30;;;;;;;13.68;3.00;;;;;;;;;;5031266;28;20032;-79
2022/07/19 09:13:18;;;;;;;7.93;2.88;;;;;;;;;;5033095;28;20041;-79
2022/07/19 09:15:54;;;;;;;8.40;2.83;;;;;;;;;;5047606;28;20033;-80
2022/07/19 09:18:22;;;;;;;10.90;3.30;;;;;;;;;;5033010;28;20029;-79
2022/07/19 09:20:50;;;;;;;8.02;2.95;;;;;;;;;;5033387;28;20053;-80
2022/07/19 09:23:16;;;;;;;10.35;3.00;;;;;;;;;;5035005;28;20029;-80
2022/07/19 09:25:48;;;;;;;11.48;2.83;;;;;;;;;;5036097;28;20052;-79
2022/07/19 09:28:15;;;;;;;13.15;3.28;;;;;;;;;;5036200;28;20018;-79
2022/07/19 09:30:43;;;;;;;8.38;2.75;;;;;;;;;;5036237;28;20029;-79
2022/07/19 09:33:16;;;;;;;10.23;3.05;;;;;;;;;;5036246;28;20025;-78
2022/07/19 09:35:44;;;;;;;8.00;2.70;;;;;;;;;;5035737;28;20025;-79
2022/07/19 09:38:16;;;;;;;12.25;3.70;;;;;;;;;;5035536;28;20036;-80
2022/07/19 09:40:42;;;;;;;9.88;3.10;;;;;;;;;;5036086;28;20088;-79
2022/07/19 09:43:08;;;;;;;10.20;3.00;;;;;;;;;;5035720;28;20121;-80
2022/07/19 09:45:34;;;;;;;10.50;3.15;;;;;;;;;;5035406;28;20033;-79
2022/07/19 09:48:03;;;;;;;8.15;3.40;;;;;;;;;;5035511;28;20022;-79
2022/07/19 09:50:29;;;;;;;9.68;3.05;;;;;;;;;;5035860;28;20017;-79
2022/07/19 09:52:57;;;;;;;11.30;3.35;;;;;;;;;;5033799;28;20068;-80
2022/07/19 09:55:23;;;;;;;17.70;3.78;;;;;;;;;;5034120;28;20025;-79
2022/07/19 09:57:50;;;;;;;17.73;3.65;;;;;;;;;;5035472;28;20629;-80
2022/07/19 10:00:18;;;;;;;22.85;3.88;;;;;;;;;;5035468;28;20029;-79
2022/07/19 10:02:45;;;;;;;14.05;3.13;;;;;;;;;;5035524;28;20052;-78
2022/07/19 10:05:12;;;;;;;7.53;3.00;;;;;;;;;;5035113;28;20540;-79
2022/07/19 10:07:39;;;;;;;13.30;3.78;;;;;;;;;;5035294;28;20009;-80
2022/07/19 10:10:06;;;;;;;7.65;2.95;;;;;;;;;;5035452;28;20094;-79
2022/07/19 10:12:32;;;;;;;10.63;2.92;;;;;;;;;;5033704;28;20029;-81
2022/07/19 10:14:59;;;;;;;10.85;3.47;;;;;;;;;;5033823;28;20029;-80
2022/07/19 10:17:34;;;;;;;14.15;2.75;;;;;;;;;;5033488;28;20037;-81
2022/07/19 10:20:00;;;;;;;8.80;3.25;;;;;;;;;;5035182;28;20108;-80
2022/07/19 10:22:27;;;;;;;10.00;3.08;;;;;;;;;;5034563;28;20030;-81
2022/07/19 10:24:53;;;;;;;8.60;2.70;;;;;;;;;;5034259;28;20483;-80
2022/07/19 10:27:36;;;;;;;5.30;2.63;;;;;;;;;;5034397;28;20048;-79
2022/07/19 10:30:08;;;;;;;6.90;2.80;;;;;;;;;;5032760;28;20021;-81
2022/07/19 10:32:34;;;;;;;10.35;3.10;;;;;;;;;;5036147;28;20041;-79
2022/07/19 10:35:17;;;;;;;9.23;2.80;;;;;;;;;;5034509;28;20026;-79
2022/07/19 10:37:44;;;;;;;7.57;2.90;;;;;;;;;;5033940;28;20029;-77
2022/07/19 10:40:10;;;;;;;9.48;2.60;;;;;;;;;;5033386;28;20486;-79
2022/07/19 10:42:36;;;;;;;9.43;3.10;;;;;;;;;;5033088;28;20379;-79
2022/07/19 10:45:02;;;;;;;12.50;2.60;;;;;;;;;;5033965;28;20033;-80
2022/07/19 10:47:37;;;;;;;7.15;2.75;;;;;;;;;;5033089;28;20490;-80
2022/07/19 10:50:03;;;;;;;10.55;2.60;;;;;;;;;;5033115;28;20021;-78
2022/07/19 10:52:29;;;;;;;8.07;2.50;;;;;;;;;;5033236;28;20502;-79
2022/07/19 10:55:13;;;;;;;11.13;2.90;;;;;;;;;;5032976;28;20036;-79
2022/07/19 10:57:39;;;;;;;10.82;3.08;;;;;;;;;;5033240;28;20050;-81
2022/07/19 11:00:23;;;;;;;9.77;2.55;;;;;;;;;;5032768;28;20026;-79
2022/07/19 11:02:51;;;;;;;10.57;2.85;;;;;;;;;;5032473;28;20075;-80
2022/07/19 11:05:27;;;;;;;6.43;2.72;;;;;;;;;;5031754;28;20025;-79
2022/07/19 11:07:54;;;;;;;10.07;2.72;;;;;;;;;;5033351;28;20031;-79
2022/07/19 11:10:25;;;;;;;8.90;2.10;;;;;;;;;;5033482;28;20034;-80
2022/07/19 11:12:51;;;;;;;6.40;2.20;;;;;;;;;;5033057;28;20033;-78
2022/07/19 11:15:17;;;;;;;7.20;2.17;;;;;;;;;;5033094;28;20128;-80
2022/07/19 11:17:57;;;;;;;13.48;2.80;;;;;;;;;;5033146;28;20025;-79
2022/07/19 11:20:25;;;;;;;5.93;2.55;;;;;;;;;;5033022;28;20107;-78
2022/07/19 11:22:51;;;;;;;10.55;2.72;;;;;;;;;;5032828;28;20040;-80
2022/07/19 11:25:24;;;;;;;11.13;2.88;;;;;;;;;;5032781;28;20049;-81
2022/07/19 11:27:50;;;;;;;11.88;2.75;;;;;;;;;;5033016;28;20041;-79
2022/07/19 11:30:16;;;;;;;6.07;2.67;;;;;;;;;;5033009;28;20034;-78
2022/07/19 11:32:43;;;;;;;7.50;2.08;;;;;;;;;;5032854;28;20080;-80
2022/07/19 11:35:10;;;;;;;7.20;2.28;;;;;;;;;;5033675;28;20084;-80
2022/07/19 11:37:38;;;;;;;7.32;2.63;;;;;;;;;;5033186;28;20037;-79
2022/07/19 11:40:05;;;;;;;7.63;2.40;;;;;;;;;;5033390;28;20060;-79
2022/07/19 11:42:31;;;;;;;8.27;2.22;;;;;;;;;;5032938;28;20420;-79
2022/07/19 11:44:57;;;;;;;6.53;2.30;;;;;;;;;;5033514;28;20025;-78
2022/07/19 11:47:23;;;;;;;8.27;2.20;;;;;;;;;;5034001;28;20064;-80
2022/07/19 11:49:50;;;;;;;11.80;2.20;;;;;;;;;;5034648;28;20037;-80
2022/07/19 11:52:16;;;;;;;13.60;2.40;;;;;;;;;;5034270;28;20109;-79
2022/07/19 11:54:42;;;;;;;11.25;2.33;;;;;;;;;;5034472;28;20525;-78
2022/07/19 11:57:26;;;;;;;6.32;2.60;;;;;;;;;;5034824;28;20050;-79
2022/07/19 11:59:52;;;;;;;10.93;2.63;;;;;;;;;;5037710;28;20060;-79
2022/07/19 12:02:18;;;;;;;5.90;2.58;;;;;;;;;;5034758;28;20036;-79
2022/07/19 12:04:44;;;;;;;11.45;2.40;;;;;;;;;;5058251;28;20098;-79
2022/07/19 12:07:11;;;;;;;8.55;3.08;;;;;;;;;;5059038;28;20029;-79
2022/07/19 12:09:37;;;;;;;7.18;2.67;;;;;;;;;;5057533;28;20032;-79
2022/07/19 12:12:13;;;;;;;12.85;3.40;;;;;;;;;;5059494;28;20037;-79
2022/07/19 12:14:40;;;;;;;9.88;2.80;;;;;;;;;;5061174;28;20009;-80
2022/07/19 12:17:09;;;;;;;11.88;2.85;;;;;;;;;;5059973;28;20116;-80
2022/07/19 12:19:35;;;;;;;10.35;2.55;;;;;;;;;;5059200;28;20127;-78
2022/07/19 12:22:01;;;;;;;6.93;2.70;;;;;;;;;;5061120;28;20024;-78
2022/07/19 12:24:31;;;;;;;7.38;2.25;;;;;;;;;;5061394;28;20104;-77
2022/07/19 12:27:08;;;;;;;6.40;2.10;;;;;;;;;;5059208;28;20025;-83
2022/07/19 12:29:35;;;;;;;5.47;2.20;;;;;;;;;;5059243;28;20035;-78
2022/07/19 12:32:11;;;;;;;12.25;2.50;;;;;;;;;;5060915;28;20041;-78
2022/07/19 12:34:45;;;;;;;12.52;2.70;;;;;;;;;;5061482;28;20021;-79
2022/07/19 12:37:29;;;;;;;13.43;2.85;;;;;;;;;;5061327;28;20029;-79
2022/07/19 12:40:08;;;;;;;11.02;2.50;;;;;;;;;;5061102;28;20029;-79
2022/07/19 12:42:41;;;;;;;6.80;2.40;;;;;;;;;;5060307;28;20032;-78
2022/07/19 12:45:07;;;;;;;11.60;2.65;;;;;;;;;;5059803;28;20328;-77
2022/07/19 12:47:34;;;;;;;11.40;2.85;;;;;;;;;;5059421;28;20025;-78
2022/07/19 12:50:00;;;;;;;8.18;2.53;;;;;;;;;;5060270;28;20028;-78
2022/07/19 12:52:26;;;;;;;8.00;2.28;;;;;;;;;;5059952;28;20033;-78
2022/07/19 12:54:52;;;;;;;11.38;2.50;;;;;;;;;;5058250;28;20083;-79
2022/07/19 12:57:18;;;;;;;9.32;2.58;;;;;;;;;;5061403;28;20053;-78
2022/07/19 12:59:44;;;;;;;9.50;2.70;;;;;;;;;;5063765;28;20036;-79
2022/07/19 13:02:11;;;;;;;9.18;2.53;;;;;;;;;;5061282;28;20037;-79
2022/07/19 13:04:39;;;;;;;9.38;2.38;;;;;;;;;;5043973;28;20061;-79
2022/07/19 13:07:05;;;;;;;5.55;2.10;;;;;;;;;;5042710;28;20009;-79
2022/07/19 13:09:31;;;;;;;8.25;1.98;;;;;;;;;;5040343;28;20129;-79
2022/07/19 13:11:57;;;;;;;6.80;2.50;;;;;;;;;;5039720;28;20033;-79
2022/07/19 13:14:23;;;;;;;10.25;2.22;;;;;;;;;;5040270;28;20033;-80
2022/07/19 13:16:50;;;;;;;10.35;2.15;;;;;;;;;;5039920;28;20048;-79
2022/07/19 13:19:16;;;;;;;12.05;2.60;;;;;;;;;;5038085;28;20026;-79
2022/07/19 13:21:42;;;;;;;6.55;2.17;;;;;;;;;;5037467;28;20034;-80
2022/07/19 13:24:08;;;;;;;9.68;2.08;;;;;;;;;;5036857;28;20493;-79
2022/07/19 13:26:34;;;;;;;4.97;1.85;;;;;;;;;;5034840;28;20033;-79
2022/07/19 13:29:00;;;;;;;7.78;2.38;;;;;;;;;;5036007;28;20025;-80
2022/07/19 13:31:26;;;;;;;9.82;2.72;;;;;;;;;;5034853;28;20040;-79
2022/07/19 13:33:52;;;;;;;8.70;1.95;;;;;;;;;;5035503;28;20535;-78
2022/07/19 13:36:18;;;;;;;13.20;2.30;;;;;;;;;;5034254;28;20068;-79
2022/07/19 13:38:44;;;;;;;5.97;2.30;;;;;;;;;;5034685;28;20057;-79
2022/07/19 13:41:10;;;;;;;8.20;2.20;;;;;;;;;;5034442;28;20033;-78
2022/07/19 13:43:36;;;;;;;6.15;2.20;;;;;;;;;;5033175;28;20053;-79
2022/07/19 13:46:03;;;;;;;8.55;2.20;;;;;;;;;;5034530;28;20033;-79
2022/07/19 13:48:29;;;;;;;8.43;2.13;;;;;;;;;;5034785;28;20041;-79
2022/07/19 13:50:55;;;;;;;7.50;2.15;;;;;;;;;;5034495;28;20523;-77
2022/07/19 13:53:21;;;;;;;10.38;2.38;;;;;;;;;;5032978;28;20034;-78
2022/07/19 13:55:47;;;;;;;5.65;2.15;;;;;;;;;;5033323;28;20418;-79
2022/07/19 13:58:13;;;;;;;6.40;2.42;;;;;;;;;;5034087;28;20050;-79
2022/07/19 14:00:40;;;;;;;10.50;2.40;;;;;;;;;;5034672;28;20038;-79
2022/07/19 14:03:06;;;;;;;9.98;2.35;;;;;;;;;;5041776;28;20033;-78
2022/07/19 14:05:32;;;;;;;7.65;2.20;;;;;;;;;;5054949;28;20037;-80
2022/07/19 14:07:58;;;;;;;12.85;2.80;;;;;;;;;;5056074;28;20104;-79
2022/07/19 14:10:24;;;;;;;10.63;2.53;;;;;;;;;;5055378;28;20049;-79
2022/07/19 14:12:50;;;;;;;7.53;2.08;;;;;;;;;;5056364;28;20025;-79
2022/07/19 14:15:16;;;;;;;5.00;2.58;;;;;;;;;;5058775;28;20036;-78
2022/07/19 14:17:42;;;;;;;12.55;2.30;;;;;;;;;;5060660;28;20029;-78
2022/07/19 14:20:08;;;;;;;7.40;2.30;;;;;;;;;;5059378;28;20096;-79
2022/07/19 14:22:34;;;;;;;9.48;2.75;;;;;;;;;;5061106;28;20041;-77
2022/07/19 14:25:00;;;;;;;7.72;2.60;;;;;;;;;;5062892;28;20498;-80
2022/07/19 14:27:26;;;;;;;11.05;2.58;;;;;;;;;;5061093;28;20028;-79
2022/07/19 14:29:52;;;;;;;4.78;2.55;;;;;;;;;;5062605;28;20517;-78
2022/07/19 14:32:18;;;;;;;11.07;2.83;;;;;;;;;;5063917;28;20044;-78
2022/07/19 14:34:44;;;;;;;9.27;2.72;;;;;;;;;;5061941;28;20179;-79